sensor_id;sensor_type;location;lat;lon;timestamp;pressure;altitude;pressure_sealevel;temperature;humidity
6413;BME280;3239;48.714;9.472;2022-08-25T00:02:06;98619.09;;;18.53;100.00
6413;BME280;3239;48.714;9.472;2022-08-25T00:04:33;98611.50;;;18.53;100.00
6413;BME280;3239;48.714;9.472;2022-08-25T00:07:02;98615.41;;;18.50;100.00
6413;BME280;3239;48.714;9.472;2022-08-25T00:09:29;98608.56;;;18.51;100.00
6413;BME280;3239;48.714;9.472;2022-08-25T00:11:56;98611.22;;;18.42;100.00
6413;BME280;3239;48.714;9.472;2022-08-25T00:14:30;98607.47;;;18.47;100.00
6413;BME280;3239;48.714;9.472;2022-08-25T00:16:57;98604.69;;;18.47;100.00
6413;BME280;3239;48.714;9.472;2022-08-25T00:19:28;98613.81;;;18.40;100.00
6413;BME280;3239;48.714;9.472;2022-08-25T00:21:57;98619.38;;;18.40;100.00
6413;BME280;3239;48.714;9.472;2022-08-25T00:24:23;98622.38;;;18.34;100.00
6413;BME280;3239;48.714;9.472;2022-08-25T00:26:52;98619.44;;;18.32;100.00
6413;BME280;3239;48.714;9.472;2022-08-25T00:29:21;98624.41;;;18.34;100.00
6413;BME280;3239;48.714;9.472;2022-08-25T00:31:47;98625.56;;;18.23;100.00
6413;BME280;3239;48.714;9.472;2022-08-25T00:34:19;98628.34;;;18.23;100.00
6413;BME280;3239;48.714;9.472;2022-08-25T00:36:45;98632.41;;;18.22;100.00
6413;BME280;3239;48.714;9.472;2022-08-25T00:39:11;98635.41;;;18.17;100.00
6413;BME280;3239;48.714;9.472;2022-08-25T00:41:41;98635.81;;;18.13;100.00
6413;BME280;3239;48.714;9.472;2022-08-25T00:44:11;98643.03;;;18.09;100.00
6413;BME280;3239;48.714;9.472;2022-08-25T00:46:45;98643.38;;;18.13;100.00
6413;BME280;3239;48.714;9.472;2022-08-25T00:49:28;98647.47;;;18.12;100.00
6413;BME280;3239;48.714;9.472;2022-08-25T00:52:26;98644.19;;;18.06;100.00
6413;BME280;3239;48.714;9.472;2022-08-25T00:55:00;98648.47;;;17.99;100.00
6413;BME280;3239;48.714;9.472;2022-08-25T00:57:35;98647.00;;;17.98;100.00
6413;BME280;3239;48.714;9.472;2022-08-25T01:00:14;98644.78;;;17.97;100.00
6413;BME280;3239;48.714;9.472;2022-08-25T01:02:41;98653.09;;;17.97;100.00
6413;BME280;3239;48.714;9.472;2022-08-25T01:05:07;98648.34;;;17.90;100.00
6413;BME280;3239;48.714;9.472;2022-08-25T01:07:33;98651.44;;;17.94;100.00
6413;BME280;3239;48.714;9.472;2022-08-25T01:10:00;98653.50;;;17.93;100.00
6413;BME280;3239;48.714;9.472;2022-08-25T01:12:26;98644.50;;;17.78;100.00
6413;BME280;3239;48.714;9.472;2022-08-25T01:14:52;98645.53;;;17.58;100.00
6413;BME280;3239;48.714;9.472;2022-08-25T01:17:19;98668.00;;;17.69;100.00
6413;BME280;3239;48.714;9.472;2022-08-25T01:19:46;98664.31;;;17.67;100.00
6413;BME280;3239;48.714;9.472;2022-08-25T01:22:12;98665.44;;;17.64;100.00
6413;BME280;3239;48.714;9.472;2022-08-25T01:24:51;98664.28;;;17.74;100.00
6413;BME280;3239;48.714;9.472;2022-08-25T01:27:19;98654.34;;;17.71;100.00
6413;BME280;3239;48.714;9.472;2022-08-25T01:29:45;98656.19;;;17.69;100.00
6413;BME280;3239;48.714;9.472;2022-08-25T01:32:12;98656.25;;;17.54;100.00
6413;BME280;3239;48.714;9.472;2022-08-25T01:34:43;98665.50;;;17.34;100.00
6413;BME280;3239;48.714;9.472;2022-08-25T01:37:12;98687.28;;;17.52;100.00
6413;BME280;3239;48.714;9.472;2022-08-25T01:39:39;98685.28;;;17.45;100.00
6413;BME280;3239;48.714;9.472;2022-08-25T01:42:47;98689.31;;;17.52;100.00
6413;BME280;3239;48.714;9.472;2022-08-25T01:45:18;98683.75;;;17.59;100.00
6413;BME280;3239;48.714;9.472;2022-08-25T01:47:44;98671.94;;;17.59;100.00
6413;BME280;3239;48.714;9.472;2022-08-25T01:50:09;98659.53;;;17.60;100.00
6413;BME280;3239;48.714;9.472;2022-08-25T01:52:59;98662.31;;;17.60;100.00
6413;BME280;3239;48.714;9.472;2022-08-25T01:55:27;98665.44;;;17.64;100.00
6413;BME280;3239;48.714;9.472;2022-08-25T01:57:54;98653.84;;;17.58;100.00
6413;BME280;3239;48.714;9.472;2022-08-25T02:00:21;98656.94;;;17.62;100.00
6413;BME280;3239;48.714;9.472;2022-08-25T02:02:48;98662.50;;;17.54;100.00
6413;BME280;3239;48.714;9.472;2022-08-25T02:05:14;98666.22;;;17.49;100.00
6413;BME280;3239;48.714;9.472;2022-08-25T02:07:44;98667.34;;;17.54;100.00
6413;BME280;3239;48.714;9.472;2022-08-25T02:10:12;98662.50;;;17.62;100.00
6413;BME280;3239;48.714;9.472;2022-08-25T02:12:38;98660.81;;;17.66;100.00
6413;BME280;3239;48.714;9.472;2022-08-25T02:15:06;98664.16;;;17.65;100.00
6413;BME280;3239;48.714;9.472;2022-08-25T02:17:34;98679.41;;;17.81;100.00
6413;BME280;3239;48.714;9.472;2022-08-25T02:20:04;98687.16;;;17.90;100.00
6413;BME280;3239;48.714;9.472;2022-08-25T02:22:30;98680.94;;;17.67;100.00
6413;BME280;3239;48.714;9.472;2022-08-25T02:24:56;98676.78;;;17.43;100.00
6413;BME280;3239;48.714;9.472;2022-08-25T02:27:22;98684.16;;;17.41;100.00
6413;BME280;3239;48.714;9.472;2022-08-25T02:29:48;98693.59;;;17.30;100.00
6413;BME280;3239;48.714;9.472;2022-08-25T02:32:14;98699.28;;;17.32;100.00
6413;BME280;3239;48.714;9.472;2022-08-25T02:34:40;98697.84;;;17.31;100.00
6413;BME280;3239;48.714;9.472;2022-08-25T02:37:06;98694.13;;;17.29;100.00
6413;BME280;3239;48.714;9.472;2022-08-25T02:39:33;98693.75;;;17.32;100.00
6413;BME280;3239;48.714;9.472;2022-08-25T02:41:59;98693.97;;;17.34;100.00
6413;BME280;3239;48.714;9.472;2022-08-25T02:44:24;98688.44;;;17.27;100.00
6413;BME280;3239;48.714;9.472;2022-08-25T02:46:50;98689.53;;;17.24;100.00
6413;BME280;3239;48.714;9.472;2022-08-25T02:49:16;98693.44;;;17.21;100.00
6413;BME280;3239;48.714;9.472;2022-08-25T02:51:43;98694.69;;;17.27;100.00
6413;BME280;3239;48.714;9.472;2022-08-25T02:54:09;98683.81;;;17.22;100.00
6413;BME280;3239;48.714;9.472;2022-08-25T02:56:34;98690.09;;;17.22;100.00
6413;BME280;3239;48.714;9.472;2022-08-25T02:59:01;98690.63;;;17.28;100.00
6413;BME280;3239;48.714;9.472;2022-08-25T03:01:29;98688.41;;;17.34;100.00
6413;BME280;3239;48.714;9.472;2022-08-25T03:03:56;98681.56;;;17.35;100.00
6413;BME280;3239;48.714;9.472;2022-08-25T03:06:22;98689.13;;;17.35;100.00
6413;BME280;3239;48.714;9.472;2022-08-25T03:08:50;98686.19;;;17.33;100.00
6413;BME280;3239;48.714;9.472;2022-08-25T03:11:16;98693.38;;;17.36;100.00
6413;BME280;3239;48.714;9.472;2022-08-25T03:13:42;98689.91;;;17.43;100.00
6413;BME280;3239;48.714;9.472;2022-08-25T03:16:09;98695.81;;;17.39;100.00
6413;BME280;3239;48.714;9.472;2022-08-25T03:18:36;98695.44;;;17.35;100.00
6413;BME280;3239;48.714;9.472;2022-08-25T03:21:02;98700.41;;;17.37;100.00
6413;BME280;3239;48.714;9.472;2022-08-25T03:23:28;98693.38;;;17.36;100.00
6413;BME280;3239;48.714;9.472;2022-08-25T03:25:55;98700.59;;;17.31;100.00
6413;BME280;3239;48.714;9.472;2022-08-25T03:28:40;98700.06;;;17.25;100.00
6413;BME280;3239;48.714;9.472;2022-08-25T03:31:07;98696.00;;;17.19;100.00
6413;BME280;3239;48.714;9.472;2022-08-25T03:33:33;98692.88;;;17.15;100.00
6413;BME280;3239;48.714;9.472;2022-08-25T03:35:59;98713.75;;;17.16;100.00
6413;BME280;3239;48.714;9.472;2022-08-25T03:38:26;98717.25;;;17.09;100.00
6413;BME280;3239;48.714;9.472;2022-08-25T03:40:52;98721.13;;;17.06;100.00
6413;BME280;3239;48.714;9.472;2022-08-25T03:43:19;98726.66;;;16.98;100.00
6413;BME280;3239;48.714;9.472;2022-08-25T03:45:46;98734.97;;;16.98;100.00
6413;BME280;3239;48.714;9.472;2022-08-25T03:48:13;98745.50;;;17.00;100.00
6413;BME280;3239;48.714;9.472;2022-08-25T03:50:49;98744.38;;;16.95;100.00
6413;BME280;3239;48.714;9.472;2022-08-25T03:53:15;98741.97;;;16.99;100.00
6413;BME280;3239;48.714;9.472;2022-08-25T03:55:42;98733.84;;;17.01;100.00
6413;BME280;3239;48.714;9.472;2022-08-25T03:58:08;98732.00;;;16.96;100.00
6413;BME280;3239;48.714;9.472;2022-08-25T04:00:34;98746.59;;;16.97;100.00
6413;BME280;3239;48.714;9.472;2022-08-25T04:03:00;98739.75;;;16.90;100.00
6413;BME280;3239;48.714;9.472;2022-08-25T04:05:26;98739.97;;;16.92;100.00
6413;BME280;3239;48.714;9.472;2022-08-25T04:07:51;98734.78;;;16.89;100.00
6413;BME280;3239;48.714;9.472;2022-08-25T04:10:17;98727.22;;;16.89;100.00
6413;BME280;3239;48.714;9.472;2022-08-25T04:12:43;98734.44;;;16.92;100.00
6413;BME280;3239;48.714;9.472;2022-08-25T04:15:09;98730.91;;;16.92;100.00
6413;BME280;3239;48.714;9.472;2022-08-25T04:17:39;98729.22;;;16.96;100.00
6413;BME280;3239;48.714;9.472;2022-08-25T04:20:07;98737.19;;;17.00;100.00
6413;BME280;3239;48.714;9.472;2022-08-25T04:22:35;98741.59;;;16.95;100.00
6413;BME280;3239;48.714;9.472;2022-08-25T04:25:03;98730.53;;;16.88;100.00
6413;BME280;3239;48.714;9.472;2022-08-25T04:27:30;98731.44;;;16.83;100.00
6413;BME280;3239;48.714;9.472;2022-08-25T04:29:56;98741.81;;;16.82;100.00
6413;BME280;3239;48.714;9.472;2022-08-25T04:32:22;98747.72;;;16.79;100.00
6413;BME280;3239;48.714;9.472;2022-08-25T04:34:47;98753.03;;;16.69;100.00
6413;BME280;3239;48.714;9.472;2022-08-25T04:37:14;98751.38;;;16.74;100.00
6413;BME280;3239;48.714;9.472;2022-08-25T04:39:39;98748.41;;;16.72;100.00
6413;BME280;3239;48.714;9.472;2022-08-25T04:42:05;98740.31;;;16.66;100.00
6413;BME280;3239;48.714;9.472;2022-08-25T04:44:31;98745.09;;;16.66;100.00
6413;BME280;3239;48.714;9.472;2022-08-25T04:46:58;98746.03;;;16.68;100.00
6413;BME280;3239;48.714;9.472;2022-08-25T04:49:25;98746.94;;;16.63;100.00
6413;BME280;3239;48.714;9.472;2022-08-25T04:51:51;98760.59;;;16.69;100.00
6413;BME280;3239;48.714;9.472;2022-08-25T04:54:17;98762.44;;;16.66;100.00
6413;BME280;3239;48.714;9.472;2022-08-25T04:56:48;98759.84;;;16.68;100.00
6413;BME280;3239;48.714;9.472;2022-08-25T04:59:16;98759.13;;;16.68;100.00
6413;BME280;3239;48.714;9.472;2022-08-25T05:01:42;98766.31;;;16.71;100.00
6413;BME280;3239;48.714;9.472;2022-08-25T05:04:13;98766.31;;;16.78;100.00
6413;BME280;3239;48.714;9.472;2022-08-25T05:06:40;98759.69;;;16.81;100.00
6413;BME280;3239;48.714;9.472;2022-08-25T05:09:06;98769.28;;;16.80;100.00
6413;BME280;3239;48.714;9.472;2022-08-25T05:11:32;98766.50;;;16.80;100.00
6413;BME280;3239;48.714;9.472;2022-08-25T05:14:00;98776.31;;;16.81;100.00
6413;BME280;3239;48.714;9.472;2022-08-25T05:16:27;98782.00;;;16.83;100.00
6413;BME280;3239;48.714;9.472;2022-08-25T05:18:54;98777.78;;;16.82;100.00
6413;BME280;3239;48.714;9.472;2022-08-25T05:21:24;98773.34;;;16.79;100.00
6413;BME280;3239;48.714;9.472;2022-08-25T05:23:55;98780.19;;;16.86;100.00
6413;BME280;3239;48.714;9.472;2022-08-25T05:26:24;98790.31;;;16.83;100.00
6413;BME280;3239;48.714;9.472;2022-08-25T05:28:53;98777.41;;;16.78;100.00
6413;BME280;3239;48.714;9.472;2022-08-25T05:31:21;98768.91;;;16.91;100.00
6413;BME280;3239;48.714;9.472;2022-08-25T05:33:48;98754.34;;;16.91;100.00
6413;BME280;3239;48.714;9.472;2022-08-25T05:36:14;98752.13;;;16.97;100.00
6413;BME280;3239;48.714;9.472;2022-08-25T05:38:42;98752.13;;;16.97;100.00
6413;BME280;3239;48.714;9.472;2022-08-25T05:41:13;98745.84;;;16.96;100.00
6413;BME280;3239;48.714;9.472;2022-08-25T05:43:42;98747.50;;;16.92;100.00
6413;BME280;3239;48.714;9.472;2022-08-25T05:46:09;98749.75;;;17.01;100.00
6413;BME280;3239;48.714;9.472;2022-08-25T05:48:35;98748.06;;;17.05;100.00
6413;BME280;3239;48.714;9.472;2022-08-25T05:51:05;98746.59;;;17.19;100.00
6413;BME280;3239;48.714;9.472;2022-08-25T05:53:31;98734.75;;;17.26;100.00
6413;BME280;3239;48.714;9.472;2022-08-25T05:55:59;98725.91;;;17.35;100.00
6413;BME280;3239;48.714;9.472;2022-08-25T05:58:26;98716.28;;;17.36;100.00
6413;BME280;3239;48.714;9.472;2022-08-25T06:00:53;98708.16;;;17.46;100.00
6413;BME280;3239;48.714;9.472;2022-08-25T06:03:19;98701.66;;;17.66;100.00
6413;BME280;3239;48.714;9.472;2022-08-25T06:05:45;98682.88;;;17.89;100.00
6413;BME280;3239;48.714;9.472;2022-08-25T06:08:11;98668.34;;;18.13;100.00
6413;BME280;3239;48.714;9.472;2022-08-25T06:10:38;98647.81;;;18.16;100.00
6413;BME280;3239;48.714;9.472;2022-08-25T06:13:04;98631.22;;;18.40;100.00
6413;BME280;3239;48.714;9.472;2022-08-25T06:15:30;98627.03;;;18.56;100.00
6413;BME280;3239;48.714;9.472;2022-08-25T06:17:57;98600.41;;;18.70;100.00
6413;BME280;3239;48.714;9.472;2022-08-25T06:20:27;98574.66;;;19.11;100.00
6413;BME280;3239;48.714;9.472;2022-08-25T06:22:57;98535.22;;;19.56;100.00
6413;BME280;3239;48.714;9.472;2022-08-25T06:25:25;98497.81;;;19.93;100.00
6413;BME280;3239;48.714;9.472;2022-08-25T06:27:52;98463.97;;;20.52;100.00
6413;BME280;3239;48.714;9.472;2022-08-25T06:30:22;98421.81;;;21.33;100.00
6413;BME280;3239;48.714;9.472;2022-08-25T06:32:48;98382.63;;;20.82;100.00
6413;BME280;3239;48.714;9.472;2022-08-25T06:35:17;98393.19;;;20.74;100.00
6413;BME280;3239;48.714;9.472;2022-08-25T06:37:44;98392.63;;;20.66;100.00
6413;BME280;3239;48.714;9.472;2022-08-25T06:40:11;98410.91;;;20.97;100.00
6413;BME280;3239;48.714;9.472;2022-08-25T06:42:37;98413.53;;;21.14;100.00
6413;BME280;3239;48.714;9.472;2022-08-25T06:45:04;98391.16;;;21.33;100.00
6413;BME280;3239;48.714;9.472;2022-08-25T06:47:31;98379.19;;;21.21;100.00
6413;BME280;3239;48.714;9.472;2022-08-25T06:49:57;98375.09;;;21.53;100.00
6413;BME280;3239;48.714;9.472;2022-08-25T06:52:23;98366.69;;;21.93;100.00
6413;BME280;3239;48.714;9.472;2022-08-25T06:54:48;98343.00;;;22.36;100.00
6413;BME280;3239;48.714;9.472;2022-08-25T06:57:14;98319.06;;;22.98;100.00
6413;BME280;3239;48.714;9.472;2022-08-25T06:59:40;98291.75;;;23.31;100.00
6413;BME280;3239;48.714;9.472;2022-08-25T07:02:06;98259.56;;;23.89;100.00
6413;BME280;3239;48.714;9.472;2022-08-25T07:04:33;98265.47;;;23.47;100.00
6413;BME280;3239;48.714;9.472;2022-08-25T07:07:00;98257.13;;;24.20;100.00
6413;BME280;3239;48.714;9.472;2022-08-25T07:09:26;98257.63;;;24.67;100.00
6413;BME280;3239;48.714;9.472;2022-08-25T07:11:51;98247.81;;;24.54;100.00
6413;BME280;3239;48.714;9.472;2022-08-25T07:14:18;98246.31;;;24.40;100.00
6413;BME280;3239;48.714;9.472;2022-08-25T07:16:45;98232.97;;;24.52;100.00
6413;BME280;3239;48.714;9.472;2022-08-25T07:19:11;98234.63;;;23.82;100.00
6413;BME280;3239;48.714;9.472;2022-08-25T07:21:40;98237.78;;;24.38;100.00
6413;BME280;3239;48.714;9.472;2022-08-25T07:24:11;98232.00;;;24.72;100.00
6413;BME280;3239;48.714;9.472;2022-08-25T07:26:40;98219.09;;;25.33;100.00
6413;BME280;3239;48.714;9.472;2022-08-25T07:29:21;98211.78;;;25.14;100.00
6413;BME280;3239;48.714;9.472;2022-08-25T07:31:47;98219.72;;;25.45;100.00
6413;BME280;3239;48.714;9.472;2022-08-25T07:34:13;98214.78;;;24.78;100.00
6413;BME280;3239;48.714;9.472;2022-08-25T07:36:58;98208.03;;;25.64;100.00
6413;BME280;3239;48.714;9.472;2022-08-25T07:39:25;98211.59;;;25.51;100.00
6413;BME280;3239;48.714;9.472;2022-08-25T07:41:52;98204.13;;;25.28;100.00
6413;BME280;3239;48.714;9.472;2022-08-25T07:44:20;98211.09;;;25.41;100.00
6413;BME280;3239;48.714;9.472;2022-08-25T07:46:46;98196.50;;;25.58;100.00
6413;BME280;3239;48.714;9.472;2022-08-25T07:49:13;98182.91;;;26.39;100.00
6413;BME280;3239;48.714;9.472;2022-08-25T07:51:38;98177.72;;;27.27;100.00
6413;BME280;3239;48.714;9.472;2022-08-25T07:54:05;98165.22;;;27.80;100.00
6413;BME280;3239;48.714;9.472;2022-08-25T07:56:31;98166.13;;;27.52;100.00
6413;BME280;3239;48.714;9.472;2022-08-25T07:58:57;98153.84;;;27.78;100.00
6413;BME280;3239;48.714;9.472;2022-08-25T08:01:23;98155.56;;;26.55;100.00
6413;BME280;3239;48.714;9.472;2022-08-25T08:03:51;98166.59;;;26.51;100.00
6413;BME280;3239;48.714;9.472;2022-08-25T08:06:20;98167.63;;;26.89;100.00
6413;BME280;3239;48.714;9.472;2022-08-25T08:08:48;98164.47;;;27.29;100.00
6413;BME280;3239;48.714;9.472;2022-08-25T08:11:30;98172.78;;;26.79;100.00
6413;BME280;3239;48.714;9.472;2022-08-25T08:13:59;98167.19;;;27.60;100.00
6413;BME280;3239;48.714;9.472;2022-08-25T08:16:27;98167.59;;;27.04;100.00
6413;BME280;3239;48.714;9.472;2022-08-25T08:18:55;98178.88;;;26.89;100.00
6413;BME280;3239;48.714;9.472;2022-08-25T08:21:29;98171.75;;;26.26;100.00
6413;BME280;3239;48.714;9.472;2022-08-25T08:23:56;98176.59;;;26.54;100.00
6413;BME280;3239;48.714;9.472;2022-08-25T08:26:23;98173.25;;;26.73;100.00
6413;BME280;3239;48.714;9.472;2022-08-25T08:28:49;98160.31;;;26.22;100.00
6413;BME280;3239;48.714;9.472;2022-08-25T08:31:21;98156.00;;;26.50;100.00
6413;BME280;3239;48.714;9.472;2022-08-25T08:33:49;98161.75;;;27.16;100.00
6413;BME280;3239;48.714;9.472;2022-08-25T08:36:17;98154.72;;;27.65;100.00
6413;BME280;3239;48.714;9.472;2022-08-25T08:38:44;98146.22;;;27.63;100.00
6413;BME280;3239;48.714;9.472;2022-08-25T08:44:30;98155.84;;;27.25;100.00
6413;BME280;3239;48.714;9.472;2022-08-25T08:47:29;98146.75;;;27.60;100.00
6413;BME280;3239;48.714;9.472;2022-08-25T08:56:08;98133.47;;;27.45;100.00
6413;BME280;3239;48.714;9.472;2022-08-25T08:58:52;98133.22;;;27.39;100.00
6413;BME280;3239;48.714;9.472;2022-08-25T09:01:32;98125.25;;;27.33;100.00
6413;BME280;3239;48.714;9.472;2022-08-25T09:04:04;98120.84;;;27.46;100.00
6413;BME280;3239;48.714;9.472;2022-08-25T09:06:52;98110.06;;;28.10;100.00
6413;BME280;3239;48.714;9.472;2022-08-25T09:09:33;98115.56;;;28.43;98.38
6413;BME280;3239;48.714;9.472;2022-08-25T09:15:24;98114.50;;;27.12;100.00
6413;BME280;3239;48.714;9.472;2022-08-25T09:19:09;98110.66;;;28.26;100.00
6413;BME280;3239;48.714;9.472;2022-08-25T09:30:09;98112.56;;;28.57;99.24
6413;BME280;3239;48.714;9.472;2022-08-25T09:32:50;98103.16;;;29.09;92.21
6413;BME280;3239;48.714;9.472;2022-08-25T09:35:24;98105.53;;;28.77;86.73
6413;BME280;3239;48.714;9.472;2022-08-25T09:38:06;98113.84;;;29.34;83.38
6413;BME280;3239;48.714;9.472;2022-08-25T09:40:38;98103.09;;;29.28;80.67
6413;BME280;3239;48.714;9.472;2022-08-25T09:43:39;98103.28;;;28.93;85.55
6413;BME280;3239;48.714;9.472;2022-08-25T09:48:55;98095.28;;;28.66;92.70
6413;BME280;3239;48.714;9.472;2022-08-25T09:51:34;98098.34;;;29.13;88.16
6413;BME280;3239;48.714;9.472;2022-08-25T09:56:58;98096.28;;;28.75;86.73
6413;BME280;3239;48.714;9.472;2022-08-25T09:59:33;98090.91;;;28.63;84.64
6413;BME280;3239;48.714;9.472;2022-08-25T10:02:03;98077.00;;;30.41;77.48
6413;BME280;3239;48.714;9.472;2022-08-25T10:04:36;98086.44;;;30.03;73.22
6413;BME280;3239;48.714;9.472;2022-08-25T10:07:18;98076.13;;;30.86;69.07
6413;BME280;3239;48.714;9.472;2022-08-25T10:09:52;98071.75;;;30.30;66.80
6413;BME280;3239;48.714;9.472;2022-08-25T10:12:22;98069.03;;;30.85;65.61
6413;BME280;3239;48.714;9.472;2022-08-25T10:14:50;98065.19;;;32.49;59.43
6413;BME280;3239;48.714;9.472;2022-08-25T10:17:26;98057.59;;;31.34;59.67
6413;BME280;3239;48.714;9.472;2022-08-25T10:20:11;98061.34;;;31.15;63.19
6413;BME280;3239;48.714;9.472;2022-08-25T10:22:40;98076.38;;;29.98;65.30
6413;BME280;3239;48.714;9.472;2022-08-25T10:25:12;98064.69;;;30.31;66.20
6413;BME280;3239;48.714;9.472;2022-08-25T10:33:07;98037.97;;;32.36;58.00
6413;BME280;3239;48.714;9.472;2022-08-25T10:41:49;98031.91;;;31.85;60.10
6413;BME280;3239;48.714;9.472;2022-08-25T10:44:42;98026.47;;;32.64;55.78
6413;BME280;3239;48.714;9.472;2022-08-25T10:48:06;98022.69;;;31.55;60.11
6413;BME280;3239;48.714;9.472;2022-08-25T10:56:36;98024.63;;;31.46;58.06
6413;BME280;3239;48.714;9.472;2022-08-25T11:04:58;98007.84;;;31.86;54.75
6413;BME280;3239;48.714;9.472;2022-08-25T11:07:40;98005.50;;;32.43;54.81
6413;BME280;3239;48.714;9.472;2022-08-25T11:10:17;98003.91;;;30.30;60.46
6413;BME280;3239;48.714;9.472;2022-08-25T11:12:52;98002.16;;;30.97;61.08
6413;BME280;3239;48.714;9.472;2022-08-25T11:15:28;98004.78;;;30.89;63.80
6413;BME280;3239;48.714;9.472;2022-08-25T11:18:02;97994.94;;;30.65;62.14
6413;BME280;3239;48.714;9.472;2022-08-25T11:20:45;97992.97;;;30.69;59.26
6413;BME280;3239;48.714;9.472;2022-08-25T11:23:24;97987.66;;;30.83;57.54
6413;BME280;3239;48.714;9.472;2022-08-25T11:25:58;97993.50;;;30.13;60.32
6413;BME280;3239;48.714;9.472;2022-08-25T11:28:47;97983.91;;;29.75;62.82
6413;BME280;3239;48.714;9.472;2022-08-25T11:31:14;97983.66;;;29.67;63.85
6413;BME280;3239;48.714;9.472;2022-08-25T11:33:42;97989.97;;;29.44;66.26
6413;BME280;3239;48.714;9.472;2022-08-25T11:36:37;97976.38;;;29.83;64.47
6413;BME280;3239;48.714;9.472;2022-08-25T11:51:50;97975.50;;;29.77;62.68
6413;BME280;3239;48.714;9.472;2022-08-25T11:54:42;97969.25;;;29.57;65.10
6413;BME280;3239;48.714;9.472;2022-08-25T11:57:20;97970.72;;;29.60;66.37
6413;BME280;3239;48.714;9.472;2022-08-25T12:02:51;97970.72;;;29.83;64.29
6413;BME280;3239;48.714;9.472;2022-08-25T12:10:15;97959.09;;;31.28;56.25
6413;BME280;3239;48.714;9.472;2022-08-25T12:15:22;97947.81;;;30.73;58.55
6413;BME280;3239;48.714;9.472;2022-08-25T12:23:45;97947.50;;;31.18;57.03
6413;BME280;3239;48.714;9.472;2022-08-25T12:34:46;97946.13;;;30.92;54.41
6413;BME280;3239;48.714;9.472;2022-08-25T12:37:23;97963.50;;;30.53;54.36
6413;BME280;3239;48.714;9.472;2022-08-25T12:42:30;97938.38;;;31.83;50.54
6413;BME280;3239;48.714;9.472;2022-08-25T12:47:53;97934.53;;;32.39;48.44
6413;BME280;3239;48.714;9.472;2022-08-25T12:50:39;97933.19;;;31.73;50.97
6413;BME280;3239;48.714;9.472;2022-08-25T12:56:46;97934.38;;;31.31;51.13
6413;BME280;3239;48.714;9.472;2022-08-25T12:59:20;97935.03;;;30.72;51.80
6413;BME280;3239;48.714;9.472;2022-08-25T13:02:27;97935.19;;;30.78;53.16
6413;BME280;3239;48.714;9.472;2022-08-25T13:11:43;97917.03;;;31.17;51.18
6413;BME280;3239;48.714;9.472;2022-08-25T13:14:12;97917.88;;;30.64;50.90
6413;BME280;3239;48.714;9.472;2022-08-25T13:16:53;97914.25;;;30.34;52.74
6413;BME280;3239;48.714;9.472;2022-08-25T13:19:20;97917.28;;;30.68;51.76
6413;BME280;3239;48.714;9.472;2022-08-25T13:21:46;97916.16;;;31.10;50.51
6413;BME280;3239;48.714;9.472;2022-08-25T13:24:31;97914.84;;;30.84;51.32
6413;BME280;3239;48.714;9.472;2022-08-25T13:27:03;97912.13;;;30.62;52.52
6413;BME280;3239;48.714;9.472;2022-08-25T13:29:47;97912.56;;;31.08;54.23
6413;BME280;3239;48.714;9.472;2022-08-25T13:32:23;97919.81;;;31.44;51.45
6413;BME280;3239;48.714;9.472;2022-08-25T13:34:49;97909.94;;;31.16;52.01
6413;BME280;3239;48.714;9.472;2022-08-25T13:37:22;97904.59;;;30.71;49.84
6413;BME280;3239;48.714;9.472;2022-08-25T13:42:50;97900.78;;;30.33;51.66
6413;BME280;3239;48.714;9.472;2022-08-25T13:45:26;97894.16;;;30.77;51.79
6413;BME280;3239;48.714;9.472;2022-08-25T13:47:53;97894.81;;;31.05;52.06
6413;BME280;3239;48.714;9.472;2022-08-25T13:52:57;97886.59;;;30.58;53.79
6413;BME280;3239;48.714;9.472;2022-08-25T13:57:59;97883.81;;;30.88;51.91
6413;BME280;3239;48.714;9.472;2022-08-25T14:00:44;97879.16;;;30.16;53.77
6413;BME280;3239;48.714;9.472;2022-08-25T14:03:31;97881.34;;;30.19;55.68
6413;BME280;3239;48.714;9.472;2022-08-25T14:06:25;97877.09;;;30.46;55.33
6413;BME280;3239;48.714;9.472;2022-08-25T14:11:56;97873.28;;;30.63;52.41
6413;BME280;3239;48.714;9.472;2022-08-25T14:17:08;97870.88;;;30.79;52.06
6413;BME280;3239;48.714;9.472;2022-08-25T14:19:41;97869.47;;;31.11;51.48
6413;BME280;3239;48.714;9.472;2022-08-25T14:22:09;97871.94;;;31.25;50.43
6413;BME280;3239;48.714;9.472;2022-08-25T14:24:37;97868.28;;;30.89;50.04
6413;BME280;3239;48.714;9.472;2022-08-25T14:27:04;97865.13;;;31.36;49.77
6413;BME280;3239;48.714;9.472;2022-08-25T14:29:30;97861.44;;;31.63;49.18
6413;BME280;3239;48.714;9.472;2022-08-25T14:31:57;97862.97;;;31.70;49.04
6413;BME280;3239;48.714;9.472;2022-08-25T14:34:32;97867.53;;;31.49;49.64
6413;BME280;3239;48.714;9.472;2022-08-25T14:37:04;97860.38;;;31.15;49.61
6413;BME280;3239;48.714;9.472;2022-08-25T14:39:31;97868.00;;;31.40;49.82
6413;BME280;3239;48.714;9.472;2022-08-25T14:41:56;97862.06;;;31.59;48.70
6413;BME280;3239;48.714;9.472;2022-08-25T14:44:22;97864.69;;;31.49;50.32
6413;BME280;3239;48.714;9.472;2022-08-25T14:46:57;97859.78;;;31.52;48.51
6413;BME280;3239;48.714;9.472;2022-08-25T14:49:30;97858.72;;;31.69;48.91
6413;BME280;3239;48.714;9.472;2022-08-25T14:52:11;97857.19;;;31.99;47.54
6413;BME280;3239;48.714;9.472;2022-08-25T14:54:39;97851.91;;;32.19;45.46
6413;BME280;3239;48.714;9.472;2022-08-25T14:57:04;97857.81;;;31.94;47.15
6413;BME280;3239;48.714;9.472;2022-08-25T14:59:30;97850.38;;;31.77;47.25
6413;BME280;3239;48.714;9.472;2022-08-25T15:01:57;97847.94;;;31.61;47.49
6413;BME280;3239;48.714;9.472;2022-08-25T15:04:26;97847.19;;;30.96;48.94
6413;BME280;3239;48.714;9.472;2022-08-25T15:06:58;97843.19;;;30.75;49.65
6413;BME280;3239;48.714;9.472;2022-08-25T15:09:25;97845.41;;;30.79;50.19
6413;BME280;3239;48.714;9.472;2022-08-25T15:11:54;97844.09;;;31.80;48.89
6413;BME280;3239;48.714;9.472;2022-08-25T15:14:23;97834.78;;;31.42;45.90
6413;BME280;3239;48.714;9.472;2022-08-25T15:16:56;97834.56;;;32.01;44.35
6413;BME280;3239;48.714;9.472;2022-08-25T15:19:25;97834.88;;;32.59;43.56
6413;BME280;3239;48.714;9.472;2022-08-25T15:21:52;97829.19;;;32.57;42.37
6413;BME280;3239;48.714;9.472;2022-08-25T15:24:20;97823.13;;;33.81;39.74
6413;BME280;3239;48.714;9.472;2022-08-25T15:26:54;97826.88;;;34.79;38.14
6413;BME280;3239;48.714;9.472;2022-08-25T15:29:22;97824.44;;;35.47;35.91
6413;BME280;3239;48.714;9.472;2022-08-25T15:31:52;97822.97;;;35.38;35.40